sensor_id;sensor_type;location;lat;lon;timestamp;P1;durP1;ratioP1;P2;durP2;ratioP2
68938;SDS011;59064;45.294;11.816;2023-11-19T00:01:52;34.60;;;22.50;;
68938;SDS011;59064;45.294;11.816;2023-11-19T00:04:18;32.60;;;22.30;;
68938;SDS011;59064;45.294;11.816;2023-11-19T00:06:44;36.50;;;22.50;;
68938;SDS011;59064;45.294;11.816;2023-11-19T00:09:09;32.40;;;21.40;;
68938;SDS011;59064;45.294;11.816;2023-11-19T00:11:35;35.10;;;22.00;;
68938;SDS011;59064;45.294;11.816;2023-11-19T00:14:01;36.50;;;21.00;;
68938;SDS011;59064;45.294;11.816;2023-11-19T00:16:26;33.20;;;21.90;;
68938;SDS011;59064;45.294;11.816;2023-11-19T00:18:53;37.50;;;23.40;;
68938;SDS011;59064;45.294;11.816;2023-11-19T00:21:18;34.30;;;23.30;;
68938;SDS011;59064;45.294;11.816;2023-11-19T00:23:44;33.20;;;19.80;;
68938;SDS011;59064;45.294;11.816;2023-11-19T00:26:09;35.80;;;21.70;;
68938;SDS011;59064;45.294;11.816;2023-11-19T00:28:35;36.30;;;22.70;;
68938;SDS011;59064;45.294;11.816;2023-11-19T00:31:03;35.00;;;23.30;;
68938;SDS011;59064;45.294;11.816;2023-11-19T00:33:29;33.70;;;21.60;;
68938;SDS011;59064;45.294;11.816;2023-11-19T00:35:56;33.30;;;22.40;;
68938;SDS011;59064;45.294;11.816;2023-11-19T00:38:21;33.80;;;21.40;;
68938;SDS011;59064;45.294;11.816;2023-11-19T00:40:47;32.40;;;20.20;;
68938;SDS011;59064;45.294;11.816;2023-11-19T00:43:12;30.70;;;20.20;;
68938;SDS011;59064;45.294;11.816;2023-11-19T00:45:38;32.00;;;21.40;;
68938;SDS011;59064;45.294;11.816;2023-11-19T00:48:03;31.70;;;20.80;;
68938;SDS011;59064;45.294;11.816;2023-11-19T00:50:33;33.60;;;21.70;;
68938;SDS011;59064;45.294;11.816;2023-11-19T00:52:59;28.60;;;19.10;;
68938;SDS011;59064;45.294;11.816;2023-11-19T00:55:24;34.20;;;21.50;;
68938;SDS011;59064;45.294;11.816;2023-11-19T00:57:50;32.50;;;20.90;;
68938;SDS011;59064;45.294;11.816;2023-11-19T01:00:15;36.10;;;24.20;;
68938;SDS011;59064;45.294;11.816;2023-11-19T01:02:44;32.10;;;19.20;;
68938;SDS011;59064;45.294;11.816;2023-11-19T01:05:11;28.60;;;17.70;;
68938;SDS011;59064;45.294;11.816;2023-11-19T01:07:39;31.00;;;19.30;;
68938;SDS011;59064;45.294;11.816;2023-11-19T01:10:05;29.60;;;19.30;;
68938;SDS011;59064;45.294;11.816;2023-11-19T01:12:32;31.20;;;19.20;;
68938;SDS011;59064;45.294;11.816;2023-11-19T01:14:57;32.20;;;20.10;;
68938;SDS011;59064;45.294;11.816;2023-11-19T01:17:23;28.20;;;18.40;;
68938;SDS011;59064;45.294;11.816;2023-11-19T01:19:48;28.50;;;18.50;;
68938;SDS011;59064;45.294;11.816;2023-11-19T01:22:15;28.20;;;17.10;;
68938;SDS011;59064;45.294;11.816;2023-11-19T01:24:40;23.30;;;14.90;;
68938;SDS011;59064;45.294;11.816;2023-11-19T01:27:06;36.20;;;18.40;;
68938;SDS011;59064;45.294;11.816;2023-11-19T01:29:31;28.70;;;17.00;;
68938;SDS011;59064;45.294;11.816;2023-11-19T01:31:57;31.20;;;19.70;;
68938;SDS011;59064;45.294;11.816;2023-11-19T01:34:22;34.70;;;19.50;;
68938;SDS011;59064;45.294;11.816;2023-11-19T01:36:48;29.90;;;19.00;;
68938;SDS011;59064;45.294;11.816;2023-11-19T01:39:14;27.70;;;18.40;;
68938;SDS011;59064;45.294;11.816;2023-11-19T01:41:41;26.80;;;17.60;;
68938;SDS011;59064;45.294;11.816;2023-11-19T01:44:06;31.00;;;18.00;;
68938;SDS011;59064;45.294;11.816;2023-11-19T01:46:32;29.60;;;19.70;;
68938;SDS011;59064;45.294;11.816;2023-11-19T01:49:00;27.90;;;19.40;;
68938;SDS011;59064;45.294;11.816;2023-11-19T01:51:25;29.30;;;19.20;;
68938;SDS011;59064;45.294;11.816;2023-11-19T01:53:52;29.90;;;18.40;;
68938;SDS011;59064;45.294;11.816;2023-11-19T01:56:18;29.70;;;19.30;;
68938;SDS011;59064;45.294;11.816;2023-11-19T01:58:45;32.90;;;20.10;;
68938;SDS011;59064;45.294;11.816;2023-11-19T02:01:11;27.10;;;18.10;;
68938;SDS011;59064;45.294;11.816;2023-11-19T02:03:38;28.70;;;18.10;;
68938;SDS011;59064;45.294;11.816;2023-11-19T02:06:04;25.40;;;17.00;;
68938;SDS011;59064;45.294;11.816;2023-11-19T02:08:30;25.90;;;16.80;;
68938;SDS011;59064;45.294;11.816;2023-11-19T02:10:56;29.20;;;18.90;;
68938;SDS011;59064;45.294;11.816;2023-11-19T02:13:22;28.70;;;18.20;;
68938;SDS011;59064;45.294;11.816;2023-11-19T02:15:48;30.10;;;20.10;;
68938;SDS011;59064;45.294;11.816;2023-11-19T02:18:20;32.30;;;19.60;;
68938;SDS011;59064;45.294;11.816;2023-11-19T02:20:47;29.80;;;19.10;;
68938;SDS011;59064;45.294;11.816;2023-11-19T02:23:14;25.70;;;18.00;;
68938;SDS011;59064;45.294;11.816;2023-11-19T02:25:40;27.20;;;18.30;;
68938;SDS011;59064;45.294;11.816;2023-11-19T02:28:06;29.20;;;19.00;;
68938;SDS011;59064;45.294;11.816;2023-11-19T02:30:32;26.80;;;15.60;;
68938;SDS011;59064;45.294;11.816;2023-11-19T02:32:58;27.10;;;17.30;;
68938;SDS011;59064;45.294;11.816;2023-11-19T02:35:27;27.60;;;18.50;;
68938;SDS011;59064;45.294;11.816;2023-11-19T02:37:56;30.00;;;19.40;;
68938;SDS011;59064;45.294;11.816;2023-11-19T02:40:22;29.00;;;18.60;;
68938;SDS011;59064;45.294;11.816;2023-11-19T02:42:49;30.40;;;18.70;;
68938;SDS011;59064;45.294;11.816;2023-11-19T02:45:15;31.90;;;19.60;;
68938;SDS011;59064;45.294;11.816;2023-11-19T02:47:41;28.50;;;18.40;;
68938;SDS011;59064;45.294;11.816;2023-11-19T02:50:10;26.40;;;18.70;;
68938;SDS011;59064;45.294;11.816;2023-11-19T02:52:41;25.00;;;17.10;;
68938;SDS011;59064;45.294;11.816;2023-11-19T02:55:08;26.80;;;16.80;;
68938;SDS011;59064;45.294;11.816;2023-11-19T02:57:35;24.70;;;17.20;;
68938;SDS011;59064;45.294;11.816;2023-11-19T03:00:02;28.90;;;17.60;;
68938;SDS011;59064;45.294;11.816;2023-11-19T03:02:37;28.70;;;18.60;;
68938;SDS011;59064;45.294;11.816;2023-11-19T03:05:09;25.80;;;17.60;;
68938;SDS011;59064;45.294;11.816;2023-11-19T03:07:36;23.70;;;16.30;;
68938;SDS011;59064;45.294;11.816;2023-11-19T03:10:02;28.20;;;16.90;;
68938;SDS011;59064;45.294;11.816;2023-11-19T03:12:30;26.70;;;16.70;;
68938;SDS011;59064;45.294;11.816;2023-11-19T03:14:56;28.40;;;16.70;;
68938;SDS011;59064;45.294;11.816;2023-11-19T03:17:21;28.60;;;16.90;;
68938;SDS011;59064;45.294;11.816;2023-11-19T03:19:49;27.90;;;17.60;;
68938;SDS011;59064;45.294;11.816;2023-11-19T03:22:15;29.80;;;16.10;;
68938;SDS011;59064;45.294;11.816;2023-11-19T03:24:40;29.60;;;16.30;;
68938;SDS011;59064;45.294;11.816;2023-11-19T03:27:06;29.60;;;16.40;;
68938;SDS011;59064;45.294;11.816;2023-11-19T03:29:32;38.10;;;18.80;;
68938;SDS011;59064;45.294;11.816;2023-11-19T03:31:57;33.10;;;19.00;;
68938;SDS011;59064;45.294;11.816;2023-11-19T03:34:23;34.10;;;19.50;;
68938;SDS011;59064;45.294;11.816;2023-11-19T03:36:48;36.00;;;20.10;;
68938;SDS011;59064;45.294;11.816;2023-11-19T03:39:14;36.10;;;19.70;;
68938;SDS011;59064;45.294;11.816;2023-11-19T03:41:39;36.40;;;19.50;;
68938;SDS011;59064;45.294;11.816;2023-11-19T03:44:05;33.40;;;18.50;;
68938;SDS011;59064;45.294;11.816;2023-11-19T03:46:31;35.60;;;18.10;;
68938;SDS011;59064;45.294;11.816;2023-11-19T03:48:56;33.50;;;19.30;;
68938;SDS011;59064;45.294;11.816;2023-11-19T03:51:22;34.70;;;19.10;;
68938;SDS011;59064;45.294;11.816;2023-11-19T03:53:47;36.10;;;18.70;;
68938;SDS011;59064;45.294;11.816;2023-11-19T03:56:13;34.20;;;19.10;;
68938;SDS011;59064;45.294;11.816;2023-11-19T03:58:39;34.50;;;19.00;;
68938;SDS011;59064;45.294;11.816;2023-11-19T04:01:05;40.00;;;20.00;;
68938;SDS011;59064;45.294;11.816;2023-11-19T04:03:31;33.00;;;19.40;;
68938;SDS011;59064;45.294;11.816;2023-11-19T04:05:57;34.20;;;19.30;;
68938;SDS011;59064;45.294;11.816;2023-11-19T04:08:24;36.70;;;19.40;;
68938;SDS011;59064;45.294;11.816;2023-11-19T04:10:49;34.20;;;19.80;;
68938;SDS011;59064;45.294;11.816;2023-11-19T04:13:15;41.10;;;20.30;;
68938;SDS011;59064;45.294;11.816;2023-11-19T04:15:40;40.20;;;20.50;;
68938;SDS011;59064;45.294;11.816;2023-11-19T04:18:06;33.80;;;19.30;;
68938;SDS011;59064;45.294;11.816;2023-11-19T04:20:32;36.00;;;20.90;;
68938;SDS011;59064;45.294;11.816;2023-11-19T04:22:57;37.40;;;19.90;;
68938;SDS011;59064;45.294;11.816;2023-11-19T04:25:26;34.10;;;19.60;;
68938;SDS011;59064;45.294;11.816;2023-11-19T04:27:51;30.50;;;18.50;;
68938;SDS011;59064;45.294;11.816;2023-11-19T04:30:17;30.90;;;17.80;;
68938;SDS011;59064;45.294;11.816;2023-11-19T04:32:43;34.00;;;20.50;;
68938;SDS011;59064;45.294;11.816;2023-11-19T04:35:09;32.80;;;19.50;;
68938;SDS011;59064;45.294;11.816;2023-11-19T04:37:34;28.80;;;17.60;;
68938;SDS011;59064;45.294;11.816;2023-11-19T04:40:00;30.30;;;17.10;;
68938;SDS011;59064;45.294;11.816;2023-11-19T04:42:26;30.40;;;18.80;;
68938;SDS011;59064;45.294;11.816;2023-11-19T04:44:51;30.00;;;18.40;;
68938;SDS011;59064;45.294;11.816;2023-11-19T04:47:18;28.20;;;15.70;;
68938;SDS011;59064;45.294;11.816;2023-11-19T04:49:43;28.20;;;16.40;;
68938;SDS011;59064;45.294;11.816;2023-11-19T04:52:09;29.50;;;16.00;;
68938;SDS011;59064;45.294;11.816;2023-11-19T04:54:34;29.80;;;17.60;;
68938;SDS011;59064;45.294;11.816;2023-11-19T04:57:00;32.40;;;18.10;;
68938;SDS011;59064;45.294;11.816;2023-11-19T04:59:25;27.60;;;16.90;;
68938;SDS011;59064;45.294;11.816;2023-11-19T05:01:52;33.30;;;16.80;;
68938;SDS011;59064;45.294;11.816;2023-11-19T05:04:18;31.00;;;16.90;;
68938;SDS011;59064;45.294;11.816;2023-11-19T05:06:43;29.70;;;15.90;;
68938;SDS011;59064;45.294;11.816;2023-11-19T05:09:10;28.10;;;16.80;;
68938;SDS011;59064;45.294;11.816;2023-11-19T05:11:38;34.00;;;18.50;;
68938;SDS011;59064;45.294;11.816;2023-11-19T05:14:04;34.40;;;19.40;;
68938;SDS011;59064;45.294;11.816;2023-11-19T05:16:30;30.50;;;18.70;;
68938;SDS011;59064;45.294;11.816;2023-11-19T05:18:56;34.40;;;18.20;;
68938;SDS011;59064;45.294;11.816;2023-11-19T05:21:21;30.30;;;16.80;;
68938;SDS011;59064;45.294;11.816;2023-11-19T05:23:47;32.20;;;19.10;;
68938;SDS011;59064;45.294;11.816;2023-11-19T05:26:19;33.00;;;17.80;;
68938;SDS011;59064;45.294;11.816;2023-11-19T05:28:46;33.10;;;17.80;;
68938;SDS011;59064;45.294;11.816;2023-11-19T05:31:12;33.30;;;18.70;;
68938;SDS011;59064;45.294;11.816;2023-11-19T05:33:38;31.30;;;17.90;;
68938;SDS011;59064;45.294;11.816;2023-11-19T05:36:04;34.90;;;18.60;;
68938;SDS011;59064;45.294;11.816;2023-11-19T05:38:30;36.00;;;20.70;;
68938;SDS011;59064;45.294;11.816;2023-11-19T05:40:56;42.20;;;20.50;;
68938;SDS011;59064;45.294;11.816;2023-11-19T05:43:21;35.50;;;20.70;;
68938;SDS011;59064;45.294;11.816;2023-11-19T05:45:47;42.30;;;23.30;;
68938;SDS011;59064;45.294;11.816;2023-11-19T05:48:13;36.60;;;21.00;;
68938;SDS011;59064;45.294;11.816;2023-11-19T05:50:38;32.70;;;19.40;;
68938;SDS011;59064;45.294;11.816;2023-11-19T05:53:04;33.90;;;18.50;;
68938;SDS011;59064;45.294;11.816;2023-11-19T05:55:38;41.40;;;22.50;;
68938;SDS011;59064;45.294;11.816;2023-11-19T05:58:11;27.90;;;17.70;;
68938;SDS011;59064;45.294;11.816;2023-11-19T06:00:40;28.20;;;16.40;;
68938;SDS011;59064;45.294;11.816;2023-11-19T06:03:05;30.20;;;18.10;;
68938;SDS011;59064;45.294;11.816;2023-11-19T06:05:32;30.00;;;17.10;;
68938;SDS011;59064;45.294;11.816;2023-11-19T06:07:58;31.10;;;18.10;;
68938;SDS011;59064;45.294;11.816;2023-11-19T06:10:23;29.50;;;18.20;;
68938;SDS011;59064;45.294;11.816;2023-11-19T06:12:56;37.10;;;19.70;;
68938;SDS011;59064;45.294;11.816;2023-11-19T06:15:24;34.40;;;18.90;;
68938;SDS011;59064;45.294;11.816;2023-11-19T06:17:50;37.40;;;21.00;;
68938;SDS011;59064;45.294;11.816;2023-11-19T06:20:15;37.70;;;21.10;;
68938;SDS011;59064;45.294;11.816;2023-11-19T06:22:42;39.40;;;21.10;;
68938;SDS011;59064;45.294;11.816;2023-11-19T06:25:09;38.00;;;21.80;;
68938;SDS011;59064;45.294;11.816;2023-11-19T06:27:36;37.30;;;22.30;;
68938;SDS011;59064;45.294;11.816;2023-11-19T06:30:01;34.20;;;20.50;;
68938;SDS011;59064;45.294;11.816;2023-11-19T06:32:27;38.30;;;20.70;;
68938;SDS011;59064;45.294;11.816;2023-11-19T06:34:53;37.20;;;20.10;;
68938;SDS011;59064;45.294;11.816;2023-11-19T06:37:19;34.70;;;18.70;;
68938;SDS011;59064;45.294;11.816;2023-11-19T06:39:44;27.40;;;15.70;;
68938;SDS011;59064;45.294;11.816;2023-11-19T06:42:10;28.90;;;16.60;;
68938;SDS011;59064;45.294;11.816;2023-11-19T06:44:36;26.50;;;16.10;;
68938;SDS011;59064;45.294;11.816;2023-11-19T06:47:01;32.70;;;18.50;;
68938;SDS011;59064;45.294;11.816;2023-11-19T06:49:27;35.70;;;19.20;;
68938;SDS011;59064;45.294;11.816;2023-11-19T06:51:52;35.30;;;20.20;;
68938;SDS011;59064;45.294;11.816;2023-11-19T06:54:18;32.60;;;19.50;;
68938;SDS011;59064;45.294;11.816;2023-11-19T06:56:43;33.10;;;20.60;;
68938;SDS011;59064;45.294;11.816;2023-11-19T06:59:09;35.40;;;18.90;;
68938;SDS011;59064;45.294;11.816;2023-11-19T07:01:35;27.60;;;16.20;;
68938;SDS011;59064;45.294;11.816;2023-11-19T07:04:01;27.70;;;17.40;;
68938;SDS011;59064;45.294;11.816;2023-11-19T07:06:33;32.00;;;16.80;;
68938;SDS011;59064;45.294;11.816;2023-11-19T07:08:58;34.60;;;18.50;;
68938;SDS011;59064;45.294;11.816;2023-11-19T07:11:24;36.70;;;19.10;;
68938;SDS011;59064;45.294;11.816;2023-11-19T07:13:50;34.20;;;20.20;;
68938;SDS011;59064;45.294;11.816;2023-11-19T07:16:17;35.50;;;20.00;;
68938;SDS011;59064;45.294;11.816;2023-11-19T07:18:43;34.10;;;19.40;;
68938;SDS011;59064;45.294;11.816;2023-11-19T07:24:31;30.90;;;17.90;;
68938;SDS011;59064;45.294;11.816;2023-11-19T07:26:56;27.80;;;16.20;;
68938;SDS011;59064;45.294;11.816;2023-11-19T07:29:22;29.50;;;17.40;;
68938;SDS011;59064;45.294;11.816;2023-11-19T07:31:51;29.30;;;17.10;;
68938;SDS011;59064;45.294;11.816;2023-11-19T07:34:16;28.90;;;17.10;;
68938;SDS011;59064;45.294;11.816;2023-11-19T07:36:42;34.10;;;17.10;;
68938;SDS011;59064;45.294;11.816;2023-11-19T07:39:07;29.50;;;17.80;;
68938;SDS011;59064;45.294;11.816;2023-11-19T07:41:33;25.20;;;15.40;;
68938;SDS011;59064;45.294;11.816;2023-11-19T07:44:00;26.40;;;14.60;;
68938;SDS011;59064;45.294;11.816;2023-11-19T07:46:26;36.60;;;18.50;;
68938;SDS011;59064;45.294;11.816;2023-11-19T07:48:52;50.30;;;24.40;;
68938;SDS011;59064;45.294;11.816;2023-11-19T07:51:18;35.30;;;18.70;;
68938;SDS011;59064;45.294;11.816;2023-11-19T07:53:43;29.40;;;15.10;;
68938;SDS011;59064;45.294;11.816;2023-11-19T07:56:09;23.30;;;14.50;;
68938;SDS011;59064;45.294;11.816;2023-11-19T07:58:35;20.80;;;13.70;;
68938;SDS011;59064;45.294;11.816;2023-11-19T08:01:01;24.90;;;14.10;;
68938;SDS011;59064;45.294;11.816;2023-11-19T08:03:27;25.30;;;14.50;;
68938;SDS011;59064;45.294;11.816;2023-11-19T08:05:57;22.30;;;13.00;;
68938;SDS011;59064;45.294;11.816;2023-11-19T08:08:23;25.70;;;14.00;;
68938;SDS011;59064;45.294;11.816;2023-11-19T08:10:49;24.30;;;13.60;;
68938;SDS011;59064;45.294;11.816;2023-11-19T08:13:17;25.10;;;13.70;;
68938;SDS011;59064;45.294;11.816;2023-11-19T08:15:43;24.00;;;13.70;;
68938;SDS011;59064;45.294;11.816;2023-11-19T08:18:10;18.70;;;12.20;;
68938;SDS011;59064;45.294;11.816;2023-11-19T08:20:35;26.10;;;14.00;;
68938;SDS011;59064;45.294;11.816;2023-11-19T08:23:02;20.20;;;12.50;;
68938;SDS011;59064;45.294;11.816;2023-11-19T08:25:28;18.50;;;11.80;;
68938;SDS011;59064;45.294;11.816;2023-11-19T08:27:55;20.80;;;11.70;;
68938;SDS011;59064;45.294;11.816;2023-11-19T08:30:20;19.90;;;12.20;;
68938;SDS011;59064;45.294;11.816;2023-11-19T08:32:46;21.40;;;11.90;;
68938;SDS011;59064;45.294;11.816;2023-11-19T08:35:11;16.40;;;11.00;;
68938;SDS011;59064;45.294;11.816;2023-11-19T08:37:37;18.40;;;11.60;;
68938;SDS011;59064;45.294;11.816;2023-11-19T08:40:03;19.40;;;11.30;;
68938;SDS011;59064;45.294;11.816;2023-11-19T08:42:30;17.60;;;11.00;;
68938;SDS011;59064;45.294;11.816;2023-11-19T08:44:55;16.00;;;10.20;;
68938;SDS011;59064;45.294;11.816;2023-11-19T08:47:21;16.90;;;10.70;;
68938;SDS011;59064;45.294;11.816;2023-11-19T08:49:48;19.20;;;10.80;;
68938;SDS011;59064;45.294;11.816;2023-11-19T08:52:17;16.90;;;10.80;;
68938;SDS011;59064;45.294;11.816;2023-11-19T08:54:43;15.30;;;9.20;;
68938;SDS011;59064;45.294;11.816;2023-11-19T08:57:08;15.10;;;10.10;;
68938;SDS011;59064;45.294;11.816;2023-11-19T08:59:34;19.20;;;10.10;;
68938;SDS011;59064;45.294;11.816;2023-11-19T09:02:00;15.40;;;9.20;;
68938;SDS011;59064;45.294;11.816;2023-11-19T09:04:26;17.00;;;9.20;;
68938;SDS011;59064;45.294;11.816;2023-11-19T09:06:52;15.30;;;8.50;;
68938;SDS011;59064;45.294;11.816;2023-11-19T09:09:17;14.70;;;8.30;;
68938;SDS011;59064;45.294;11.816;2023-11-19T09:11:43;13.10;;;8.10;;
68938;SDS011;59064;45.294;11.816;2023-11-19T09:14:09;12.00;;;7.40;;
68938;SDS011;59064;45.294;11.816;2023-11-19T09:16:34;12.10;;;7.70;;
68938;SDS011;59064;45.294;11.816;2023-11-19T09:19:00;12.60;;;7.40;;
68938;SDS011;59064;45.294;11.816;2023-11-19T09:21:27;11.50;;;7.00;;
68938;SDS011;59064;45.294;11.816;2023-11-19T09:23:54;20.90;;;8.70;;
68938;SDS011;59064;45.294;11.816;2023-11-19T09:26:20;13.00;;;7.30;;
68938;SDS011;59064;45.294;11.816;2023-11-19T09:28:46;14.00;;;8.20;;
68938;SDS011;59064;45.294;11.816;2023-11-19T09:31:13;11.90;;;7.00;;
68938;SDS011;59064;45.294;11.816;2023-11-19T09:33:42;12.20;;;6.70;;
68938;SDS011;59064;45.294;11.816;2023-11-19T09:36:08;10.40;;;6.20;;
68938;SDS011;59064;45.294;11.816;2023-11-19T09:38:34;10.10;;;6.30;;
68938;SDS011;59064;45.294;11.816;2023-11-19T09:41:05;10.40;;;5.50;;
68938;SDS011;59064;45.294;11.816;2023-11-19T09:43:35;12.70;;;7.90;;
68938;SDS011;59064;45.294;11.816;2023-11-19T09:46:04;11.30;;;7.20;;
68938;SDS011;59064;45.294;11.816;2023-11-19T09:48:37;10.40;;;6.90;;
68938;SDS011;59064;45.294;11.816;2023-11-19T09:51:06;12.80;;;7.60;;
68938;SDS011;59064;45.294;11.816;2023-11-19T09:53:36;11.90;;;6.90;;
68938;SDS011;59064;45.294;11.816;2023-11-19T09:56:03;11.00;;;7.00;;
68938;SDS011;59064;45.294;11.816;2023-11-19T09:58:33;11.00;;;6.60;;
68938;SDS011;59064;45.294;11.816;2023-11-19T10:00:59;10.90;;;7.10;;
68938;SDS011;59064;45.294;11.816;2023-11-19T10:03:35;11.40;;;6.90;;
68938;SDS011;59064;45.294;11.816;2023-11-19T10:06:08;11.90;;;7.80;;
68938;SDS011;59064;45.294;11.816;2023-11-19T10:08:36;12.70;;;7.80;;
68938;SDS011;59064;45.294;11.816;2023-11-19T10:11:03;13.00;;;7.50;;
68938;SDS011;59064;45.294;11.816;2023-11-19T10:13:28;11.40;;;7.20;;
68938;SDS011;59064;45.294;11.816;2023-11-19T10:15:55;11.20;;;7.30;;
68938;SDS011;59064;45.294;11.816;2023-11-19T10:18:25;10.50;;;7.20;;
68938;SDS011;59064;45.294;11.816;2023-11-19T10:20:52;11.20;;;7.30;;
68938;SDS011;59064;45.294;11.816;2023-11-19T10:23:20;13.20;;;8.00;;
68938;SDS011;59064;45.294;11.816;2023-11-19T10:25:46;12.70;;;7.70;;
68938;SDS011;59064;45.294;11.816;2023-11-19T10:28:14;12.80;;;8.20;;
68938;SDS011;59064;45.294;11.816;2023-11-19T10:30:41;13.20;;;8.50;;
68938;SDS011;59064;45.294;11.816;2023-11-19T10:33:11;12.50;;;7.80;;
68938;SDS011;59064;45.294;11.816;2023-11-19T10:35:55;13.00;;;8.20;;
68938;SDS011;59064;45.294;11.816;2023-11-19T10:38:23;15.10;;;8.40;;
68938;SDS011;59064;45.294;11.816;2023-11-19T10:40:49;14.20;;;8.60;;
68938;SDS011;59064;45.294;11.816;2023-11-19T10:43:16;12.00;;;8.00;;
68938;SDS011;59064;45.294;11.816;2023-11-19T10:45:42;12.90;;;8.10;;
68938;SDS011;59064;45.294;11.816;2023-11-19T10:50:43;11.70;;;8.10;;
68938;SDS011;59064;45.294;11.816;2023-11-19T10:53:11;14.10;;;8.90;;
68938;SDS011;59064;45.294;11.816;2023-11-19T10:55:40;13.80;;;9.00;;
68938;SDS011;59064;45.294;11.816;2023-11-19T11:00:39;13.00;;;9.00;;
68938;SDS011;59064;45.294;11.816;2023-11-19T11:05:52;14.70;;;8.00;;
68938;SDS011;59064;45.294;11.816;2023-11-19T11:08:18;14.30;;;7.90;;
68938;SDS011;59064;45.294;11.816;2023-11-19T11:10:48;15.80;;;9.80;;
68938;SDS011;59064;45.294;11.816;2023-11-19T11:13:18;14.50;;;9.50;;
68938;SDS011;59064;45.294;11.816;2023-11-19T11:15:44;14.70;;;9.40;;
68938;SDS011;59064;45.294;11.816;2023-11-19T11:18:13;13.00;;;8.80;;
68938;SDS011;59064;45.294;11.816;2023-11-19T11:20:39;13.50;;;8.60;;
68938;SDS011;59064;45.294;11.816;2023-11-19T11:39:49;16.50;;;10.10;;
68938;SDS011;59064;45.294;11.816;2023-11-19T11:50:18;14.50;;;9.20;;
68938;SDS011;59064;45.294;11.816;2023-11-19T11:55:27;15.10;;;9.90;;
68938;SDS011;59064;45.294;11.816;2023-11-19T11:58:02;15.50;;;10.30;;
68938;SDS011;59064;45.294;11.816;2023-11-19T12:00:31;16.20;;;10.00;;
68938;SDS011;59064;45.294;11.816;2023-11-19T12:03:01;16.70;;;10.90;;
68938;SDS011;59064;45.294;11.816;2023-11-19T12:05:28;15.40;;;10.80;;
68938;SDS011;59064;45.294;11.816;2023-11-19T12:08:04;15.70;;;10.80;;
68938;SDS011;59064;45.294;11.816;2023-11-19T12:13:14;16.20;;;11.70;;
68938;SDS011;59064;45.294;11.816;2023-11-19T12:18:22;16.10;;;11.40;;
68938;SDS011;59064;45.294;11.816;2023-11-19T12:20:49;17.00;;;13.00;;
68938;SDS011;59064;45.294;11.816;2023-11-19T12:23:14;16.80;;;13.30;;
68938;SDS011;59064;45.294;11.816;2023-11-19T12:25:40;18.40;;;14.10;;
68938;SDS011;59064;45.294;11.816;2023-11-19T12:28:11;19.40;;;15.20;;
68938;SDS011;59064;45.294;11.816;2023-11-19T12:30:37;19.10;;;15.60;;
68938;SDS011;59064;45.294;11.816;2023-11-19T12:33:07;21.90;;;16.10;;
68938;SDS011;59064;45.294;11.816;2023-11-19T12:35:38;21.60;;;17.30;;
68938;SDS011;59064;45.294;11.816;2023-11-19T12:38:08;20.40;;;16.40;;
68938;SDS011;59064;45.294;11.816;2023-11-19T12:40:43;21.10;;;16.20;;
68938;SDS011;59064;45.294;11.816;2023-11-19T12:43:09;19.40;;;16.30;;
68938;SDS011;59064;45.294;11.816;2023-11-19T12:45:35;20.00;;;15.50;;
68938;SDS011;59064;45.294;11.816;2023-11-19T12:48:05;21.40;;;16.50;;
68938;SDS011;59064;45.294;11.816;2023-11-19T12:53:21;20.50;;;15.90;;
68938;SDS011;59064;45.294;11.816;2023-11-19T12:55:48;19.30;;;15.90;;
68938;SDS011;59064;45.294;11.816;2023-11-19T13:00:59;22.30;;;17.30;;
68938;SDS011;59064;45.294;11.816;2023-11-19T13:03:28;22.60;;;18.50;;
68938;SDS011;59064;45.294;11.816;2023-11-19T13:06:01;21.20;;;18.40;;
68938;SDS011;59064;45.294;11.816;2023-11-19T13:08:40;22.40;;;17.60;;
68938;SDS011;59064;45.294;11.816;2023-11-19T15:32:23;33.00;;;23.20;;
68938;SDS011;59064;45.294;11.816;2023-11-19T15:34:49;29.80;;;22.10;;
68938;SDS011;59064;45.294;11.816;2023-11-19T21:36:45;246.40;;;118.90;;
68938;SDS011;59064;45.294;11.816;2023-11-19T21:43:55;74.80;;;47.50;;
68938;SDS011;59064;45.294;11.816;2023-11-19T21:46:58;76.80;;;48.30;;
68938;SDS011;59064;45.294;11.816;2023-11-19T21:57:13;61.80;;;38.80;;
68938;SDS011;59064;45.294;11.816;2023-11-19T22:00:50;58.70;;;37.00;;
68938;SDS011;59064;45.294;11.816;2023-11-19T22:07:28;49.70;;;31.00;;
68938;SDS011;59064;45.294;11.816;2023-11-19T22:10:49;52.00;;;33.40;;
68938;SDS011;59064;45.294;11.816;2023-11-19T22:13:44;56.70;;;34.00;;
68938;SDS011;59064;45.294;11.816;2023-11-19T22:16:48;55.50;;;32.20;;
68938;SDS011;59064;45.294;11.816;2023-11-19T22:20:26;57.50;;;35.90;;
68938;SDS011;59064;45.294;11.816;2023-11-19T22:23:32;62.40;;;38.90;;
68938;SDS011;59064;45.294;11.816;2023-11-19T22:26:33;58.10;;;36.70;;
68938;SDS011;59064;45.294;11.816;2023-11-19T22:42:58;47.60;;;32.00;;
68938;SDS011;59064;45.294;11.816;2023-11-19T22:45:48;51.60;;;32.20;;
68938;SDS011;59064;45.294;11.816;2023-11-19T22:49:01;48.60;;;31.60;;
68938;SDS011;59064;45.294;11.816;2023-11-19T22:52:14;54.00;;;35.20;;
68938;SDS011;59064;45.294;11.816;2023-11-19T22:58:35;50.20;;;32.60;;
68938;SDS011;59064;45.294;11.816;2023-11-19T23:01:32;51.70;;;31.90;;
68938;SDS011;59064;45.294;11.816;2023-11-19T23:25:47;50.90;;;34.40;;
68938;SDS011;59064;45.294;11.816;2023-11-19T23:28:56;41.80;;;28.50;;
68938;SDS011;59064;45.294;11.816;2023-11-19T23:39:09;63.50;;;38.10;;
68938;SDS011;59064;45.294;11.816;2023-11-19T23:45:53;68.60;;;41.40;;
68938;SDS011;59064;45.294;11.816;2023-11-19T23:56:04;60.20;;;37.50;;
